Time;durP1;ratioP1;P1;durP2;ratioP2;P2;SDS_P1;SDS_P2;PMS_P1;PMS_P2;Temp;Humidity;BMP_temperature;BMP_pressure;BME280_temperature;BME280_humidity;BME280_pressure;Samples;Min_cycle;Max_cycle;Signal;HPM_P1;HPM_P2
2023/05/22 00:00:31;;;;;;;11.00;10.00;;;25.30;48.90;;;;;;5040743;28;20197;-48
2023/05/22 00:02:57;;;;;;;11.50;10.40;;;25.20;49.10;;;;;;5045213;28;20640;-47
2023/05/22 00:05:23;;;;;;;10.77;9.87;;;25.20;49.20;;;;;;5045409;28;20200;-49
2023/05/22 00:07:49;;;;;;;11.20;10.20;;;25.20;49.20;;;;;;5047389;28;20200;-47
2023/05/22 00:10:14;;;;;;;10.07;9.17;;;25.20;49.10;;;;;;5046265;28;20201;-51
2023/05/22 00:12:40;;;;;;;10.43;9.43;;;25.20;49.10;;;;;;5049194;28;20220;-47
2023/05/22 00:15:06;;;;;;;11.20;10.27;;;25.10;49.20;;;;;;5050036;28;20223;-50
2023/05/22 00:17:32;;;;;;;11.97;10.80;;;25.10;49.30;;;;;;5048299;28;20200;-48
2023/05/22 00:20:03;;;;;;;12.43;11.33;;;25.10;49.30;;;;;;5051098;28;20577;-47
2023/05/22 00:22:34;;;;;;;11.10;10.20;;;25.00;49.20;;;;;;5049911;28;20457;-52
2023/05/22 00:25:01;;;;;;;12.53;11.43;;;25.00;49.30;;;;;;5039982;28;20451;-47
2023/05/22 00:27:26;;;;;;;12.00;10.70;;;25.00;49.30;;;;;;5049595;28;20465;-47
2023/05/22 00:29:52;;;;;;;10.80;9.80;;;25.00;49.30;;;;;;5045467;28;20484;-48
2023/05/22 00:32:18;;;;;;;11.70;10.60;;;25.00;49.30;;;;;;5035039;28;20665;-46
2023/05/22 00:34:43;;;;;;;11.53;10.40;;;24.90;49.30;;;;;;5038219;28;20262;-46
2023/05/22 00:37:09;;;;;;;10.30;8.70;;;24.90;49.40;;;;;;5047872;28;20193;-47
2023/05/22 00:39:35;;;;;;;13.57;10.63;;;24.90;49.40;;;;;;5044330;28;20224;-48
2023/05/22 00:42:01;;;;;;;11.27;10.13;;;24.90;49.40;;;;;;5037703;28;20812;-47
2023/05/22 00:44:26;;;;;;;15.97;12.30;;;24.90;49.40;;;;;;5047373;28;20563;-47
2023/05/22 00:46:52;;;;;;;11.67;10.67;;;25.00;49.40;;;;;;5049602;28;20605;-50
2023/05/22 00:49:17;;;;;;;12.67;11.47;;;24.90;49.20;;;;;;5043123;28;20224;-50
2023/05/22 00:51:43;;;;;;;12.67;11.47;;;24.80;49.30;;;;;;5040365;28;20675;-49
2023/05/22 00:54:10;;;;;;;11.87;10.87;;;24.70;49.50;;;;;;5040003;28;20223;-48
2023/05/22 00:56:36;;;;;;;14.37;12.87;;;24.60;50.00;;;;;;5051400;28;20199;-47
2023/05/22 00:59:03;;;;;;;13.60;12.33;;;24.40;50.20;;;;;;5041383;28;20501;-51
2023/05/22 01:01:32;;;;;;;13.57;12.37;;;24.30;50.40;;;;;;5041893;28;20571;-49
2023/05/22 01:04:00;;;;;;;12.07;11.07;;;24.20;50.50;;;;;;5043619;28;21205;-50
2023/05/22 01:06:26;;;;;;;13.30;12.20;;;24.10;50.90;;;;;;5042457;28;21009;-47
2023/05/22 01:08:51;;;;;;;12.83;11.63;;;23.90;51.20;;;;;;5051845;28;20581;-50
2023/05/22 01:11:27;;;;;;;13.90;12.50;;;23.80;51.80;;;;;;5054889;28;20188;-48
2023/05/22 01:14:23;;;;;;;14.33;12.83;;;23.70;52.10;;;;;;5052831;28;20188;-49
2023/05/22 01:17:00;;;;;;;13.43;12.13;;;23.50;52.50;;;;;;5042137;28;20455;-50
2023/05/22 01:19:42;;;;;;;13.80;12.47;;;23.30;53.00;;;;;;5034991;28;20473;-48
2023/05/22 01:22:37;;;;;;;13.60;12.30;;;23.30;53.20;;;;;;5041425;28;20944;-47
2023/05/22 01:25:25;;;;;;;11.57;10.47;;;23.30;53.00;;;;;;5036670;28;20450;-49
2023/05/22 01:28:21;;;;;;;13.13;11.93;;;23.20;53.20;;;;;;5054334;28;20470;-48
2023/05/22 01:31:10;;;;;;;12.87;11.77;;;23.10;53.30;;;;;;5055066;28;20462;-47
2023/05/22 01:33:50;;;;;;;13.70;12.60;;;23.10;53.50;;;;;;5054183;28;20415;-48
2023/05/22 01:36:21;;;;;;;13.23;12.07;;;23.10;53.50;;;;;;5054171;28;20423;-46
2023/05/22 01:38:48;;;;;;;13.33;12.13;;;22.90;53.70;;;;;;5054162;28;20521;-47
2023/05/22 01:41:15;;;;;;;13.30;11.97;;;22.90;53.60;;;;;;5050520;28;20435;-47
2023/05/22 01:43:41;;;;;;;13.80;11.80;;;22.90;53.70;;;;;;5051974;28;20493;-47
2023/05/22 01:46:06;;;;;;;12.97;11.77;;;23.00;53.40;;;;;;5052843;28;20446;-48
2023/05/22 01:48:32;;;;;;;14.70;13.30;;;22.90;53.40;;;;;;5053734;28;20840;-47
2023/05/22 01:51:04;;;;;;;13.80;12.60;;;22.90;53.40;;;;;;5050092;28;20194;-48
2023/05/22 01:53:38;;;;;;;13.30;12.03;;;22.90;53.40;;;;;;5043587;28;20447;-47
2023/05/22 01:56:14;;;;;;;13.30;12.00;;;22.80;53.40;;;;;;5052432;28;20485;-48
2023/05/22 01:58:55;;;;;;;15.23;13.47;;;22.80;53.50;;;;;;5050415;28;20478;-50
2023/05/22 02:01:25;;;;;;;14.70;13.30;;;22.70;53.50;;;;;;5047394;28;20853;-47
2023/05/22 02:03:55;;;;;;;13.20;12.00;;;22.70;53.80;;;;;;5043535;28;20459;-47
2023/05/22 02:06:22;;;;;;;14.53;13.07;;;22.60;54.00;;;;;;5045241;28;20968;-46
2023/05/22 02:08:49;;;;;;;13.57;12.43;;;22.50;54.50;;;;;;5036043;28;20484;-48
2023/05/22 02:11:16;;;;;;;13.10;12.00;;;22.50;54.50;;;;;;5053341;28;20443;-47
2023/05/22 02:13:41;;;;;;;13.43;12.20;;;22.50;54.40;;;;;;5052874;28;20443;-48
2023/05/22 02:16:08;;;;;;;13.50;12.20;;;22.50;54.30;;;;;;5051918;28;20451;-47
2023/05/22 02:18:33;;;;;;;13.07;11.70;;;22.60;54.10;;;;;;5053679;28;20207;-47
2023/05/22 02:20:59;;;;;;;14.63;12.50;;;22.60;54.20;;;;;;5043484;28;20451;-48
2023/05/22 02:23:28;;;;;;;13.40;12.00;;;22.60;54.10;;;;;;5040582;28;20270;-52
2023/05/22 02:25:54;;;;;;;13.80;12.70;;;22.70;54.50;;;;;;5045669;28;20439;-47
2023/05/22 02:28:20;;;;;;;13.80;12.50;;;22.60;53.60;;;;;;5048239;28;20854;-49
2023/05/22 02:30:45;;;;;;;13.90;12.70;;;22.60;54.40;;;;;;5053069;28;20426;-50
2023/05/22 02:33:11;;;;;;;13.57;12.37;;;22.60;53.70;;;;;;5052534;28;20278;-47
2023/05/22 02:35:37;;;;;;;13.00;11.80;;;22.50;53.60;;;;;;5049487;28;20193;-48
2023/05/22 02:38:02;;;;;;;14.90;13.20;;;22.50;53.70;;;;;;5035039;28;20240;-47
2023/05/22 02:40:28;;;;;;;13.07;11.87;;;22.40;53.60;;;;;;5039598;28;20193;-49
2023/05/22 02:42:54;;;;;;;13.53;12.33;;;22.30;54.10;;;;;;5041960;28;20189;-47
2023/05/22 02:45:19;;;;;;;13.30;12.10;;;22.30;54.50;;;;;;5043748;28;20196;-48
2023/05/22 02:47:45;;;;;;;14.60;13.20;;;22.30;54.70;;;;;;5050595;28;20196;-48
2023/05/22 02:50:10;;;;;;;13.67;12.27;;;22.30;54.80;;;;;;5039636;28;20193;-49
2023/05/22 02:52:38;;;;;;;13.30;12.10;;;22.30;54.70;;;;;;5041295;28;20235;-48
2023/05/22 02:55:03;;;;;;;14.53;12.90;;;22.30;54.50;;;;;;5042212;28;20208;-49
2023/05/22 02:57:29;;;;;;;13.83;12.53;;;22.30;54.60;;;;;;5042327;28;20447;-48
2023/05/22 02:59:56;;;;;;;13.70;12.23;;;22.30;54.60;;;;;;5037405;28;20323;-47
2023/05/22 03:02:24;;;;;;;13.50;12.03;;;22.30;54.70;;;;;;5037435;28;20199;-49
2023/05/22 03:04:50;;;;;;;14.23;12.87;;;22.30;54.70;;;;;;5048292;28;20808;-47
2023/05/22 03:07:15;;;;;;;14.13;12.83;;;22.20;55.10;;;;;;5041667;28;20447;-47
2023/05/22 03:09:41;;;;;;;14.20;12.77;;;22.10;55.10;;;;;;5038751;28;20291;-51
2023/05/22 03:12:07;;;;;;;13.83;12.53;;;22.10;55.20;;;;;;5042299;28;20270;-49
2023/05/22 03:14:33;;;;;;;13.80;12.40;;;22.10;55.20;;;;;;5038461;28;20822;-47
2023/05/22 03:16:59;;;;;;;13.20;12.00;;;22.10;55.30;;;;;;5040158;28;20447;-47
2023/05/22 03:19:25;;;;;;;13.63;12.00;;;22.00;55.60;;;;;;5050673;28;20200;-47
2023/05/22 03:21:50;;;;;;;13.70;12.47;;;21.70;56.20;;;;;;5039487;28;20188;-48
2023/05/22 03:24:16;;;;;;;15.30;12.80;;;21.70;56.40;;;;;;5044085;28;20816;-47
2023/05/22 03:26:42;;;;;;;13.97;12.67;;;21.60;56.80;;;;;;5033121;28;20248;-48
2023/05/22 03:29:08;;;;;;;13.17;11.83;;;21.50;57.00;;;;;;5038666;28;20239;-50
2023/05/22 03:31:35;;;;;;;13.63;12.23;;;21.50;57.20;;;;;;5040617;28;20573;-47
2023/05/22 03:34:01;;;;;;;15.30;13.80;;;21.60;57.10;;;;;;5039340;28;20442;-46
2023/05/22 03:36:27;;;;;;;13.57;12.27;;;21.50;57.00;;;;;;5043052;28;20472;-52
2023/05/22 03:38:53;;;;;;;14.80;12.47;;;21.50;57.40;;;;;;5042445;28;20949;-51
2023/05/22 03:41:18;;;;;;;14.63;13.23;;;21.60;57.10;;;;;;5040057;28;20250;-48
2023/05/22 03:43:45;;;;;;;14.07;12.60;;;21.70;56.80;;;;;;5040942;28;20192;-48
2023/05/22 03:46:10;;;;;;;13.83;12.40;;;21.70;56.70;;;;;;5038530;28;20189;-47
2023/05/22 03:48:36;;;;;;;13.73;12.53;;;21.80;56.40;;;;;;5043679;28;20483;-49
2023/05/22 03:51:02;;;;;;;14.73;13.37;;;21.80;56.30;;;;;;5038460;28;20238;-48
2023/05/22 03:53:28;;;;;;;14.70;13.30;;;21.70;56.30;;;;;;5038721;28;20439;-47
2023/05/22 03:55:56;;;;;;;13.03;11.93;;;21.70;56.60;;;;;;5038373;28;20197;-53
2023/05/22 03:58:24;;;;;;;12.90;11.60;;;21.80;56.50;;;;;;5038944;28;20562;-51
2023/05/22 04:00:53;;;;;;;12.80;11.70;;;21.80;56.10;;;;;;5034926;28;20458;-47
2023/05/22 04:03:18;;;;;;;12.60;11.50;;;21.80;55.80;;;;;;5041349;28;20953;-47
2023/05/22 04:05:45;;;;;;;12.67;11.47;;;21.90;56.00;;;;;;5043665;28;20477;-47
2023/05/22 04:08:11;;;;;;;14.10;12.77;;;21.90;56.10;;;;;;5048111;28;20232;-47
2023/05/22 04:10:37;;;;;;;13.50;12.17;;;21.80;56.00;;;;;;5046198;28;20462;-47
2023/05/22 04:13:03;;;;;;;13.97;12.60;;;21.40;57.10;;;;;;5049859;28;20235;-46
2023/05/22 04:15:29;;;;;;;13.80;12.50;;;21.50;57.20;;;;;;5050179;28;20470;-47
2023/05/22 04:17:54;;;;;;;13.80;12.50;;;21.60;56.90;;;;;;5049008;28;20482;-47
2023/05/22 04:20:21;;;;;;;18.17;13.50;;;21.60;56.90;;;;;;5050026;28;20205;-47
2023/05/22 04:22:47;;;;;;;13.93;12.53;;;21.60;56.90;;;;;;5044531;28;20379;-46
2023/05/22 04:25:13;;;;;;;14.67;12.30;;;21.70;56.60;;;;;;5049544;28;20526;-48
2023/05/22 04:27:39;;;;;;;13.97;12.77;;;21.40;57.00;;;;;;5050495;28;21000;-47
2023/05/22 04:30:07;;;;;;;13.50;12.20;;;21.30;57.80;;;;;;5050277;28;20574;-47
2023/05/22 04:32:35;;;;;;;11.90;10.80;;;21.40;57.70;;;;;;5046191;28;20195;-47
2023/05/22 04:35:00;;;;;;;12.23;11.07;;;21.50;57.30;;;;;;5046132;28;21351;-48
2023/05/22 04:37:27;;;;;;;13.80;12.57;;;21.50;57.10;;;;;;5037359;28;20447;-47
2023/05/22 04:39:57;;;;;;;14.30;12.23;;;21.60;57.00;;;;;;5038042;28;20211;-49
2023/05/22 04:42:24;;;;;;;13.87;12.57;;;21.80;56.80;;;;;;5041482;28;20522;-49
2023/05/22 04:44:51;;;;;;;14.63;11.83;;;21.80;56.70;;;;;;5036146;28;20452;-53
2023/05/22 04:47:18;;;;;;;16.10;12.17;;;21.90;56.70;;;;;;5037163;28;20967;-47
2023/05/22 04:49:44;;;;;;;12.77;11.57;;;21.90;56.60;;;;;;5042868;28;20499;-47
2023/05/22 04:52:10;;;;;;;12.93;11.63;;;22.00;56.50;;;;;;5046317;28;21038;-47
2023/05/22 04:54:37;;;;;;;13.40;12.20;;;22.00;56.70;;;;;;5042366;28;20439;-48
2023/05/22 04:57:03;;;;;;;13.13;11.47;;;22.10;56.70;;;;;;5040104;28;22381;-47
2023/05/22 04:59:38;;;;;;;14.27;12.97;;;22.20;56.60;;;;;;5033535;28;21051;-53
2023/05/22 05:02:04;;;;;;;12.93;11.73;;;22.20;56.30;;;;;;5037050;28;20438;-47
2023/05/22 05:04:30;;;;;;;13.50;12.20;;;22.30;56.30;;;;;;5037745;28;20447;-47
2023/05/22 05:06:56;;;;;;;14.27;12.97;;;22.40;56.20;;;;;;5034962;28;21123;-47
2023/05/22 05:09:22;;;;;;;13.30;12.10;;;22.40;56.00;;;;;;5041735;28;20316;-48
2023/05/22 05:11:49;;;;;;;13.23;12.10;;;22.50;55.90;;;;;;5041320;28;20451;-46
2023/05/22 05:14:15;;;;;;;13.57;11.90;;;22.50;55.80;;;;;;5042271;28;20442;-48
2023/05/22 05:16:41;;;;;;;14.53;13.00;;;22.50;56.00;;;;;;5035905;28;20815;-47
2023/05/22 05:19:08;;;;;;;14.20;12.87;;;22.50;55.80;;;;;;5039824;28;20479;-51
2023/05/22 05:21:33;;;;;;;14.33;13.00;;;22.60;55.60;;;;;;5042182;28;20443;-47
2023/05/22 05:23:59;;;;;;;14.40;13.00;;;22.60;55.30;;;;;;5037266;28;20532;-48
2023/05/22 05:26:25;;;;;;;16.03;13.43;;;22.70;55.30;;;;;;5036393;28;20198;-49
2023/05/22 05:28:51;;;;;;;13.37;12.23;;;22.70;55.30;;;;;;5037397;28;20322;-47
2023/05/22 05:31:20;;;;;;;14.90;13.50;;;22.70;55.40;;;;;;5041073;28;20630;-47
2023/05/22 05:33:46;;;;;;;15.17;11.80;;;22.50;55.90;;;;;;5036672;28;20315;-49
2023/05/22 05:36:12;;;;;;;14.10;11.37;;;22.60;56.00;;;;;;5034766;28;20601;-47
2023/05/22 05:38:37;;;;;;;12.27;11.17;;;22.70;55.70;;;;;;5034115;28;20197;-47
2023/05/22 05:41:03;;;;;;;15.50;13.60;;;22.80;55.50;;;;;;5036454;28;20618;-51
2023/05/22 05:43:28;;;;;;;14.47;13.00;;;23.00;55.20;;;;;;5041114;28;20200;-49
2023/05/22 05:45:54;;;;;;;15.27;13.90;;;23.10;55.30;;;;;;5040610;28;20197;-50
2023/05/22 05:48:20;;;;;;;14.57;13.13;;;23.20;55.30;;;;;;5039874;28;20224;-48
2023/05/22 05:50:45;;;;;;;14.53;13.13;;;23.20;55.20;;;;;;5036184;28;20348;-50
2023/05/22 05:53:11;;;;;;;15.03;11.73;;;23.30;55.00;;;;;;5044960;28;20196;-50
2023/05/22 05:55:37;;;;;;;13.63;12.33;;;23.30;54.90;;;;;;5051663;28;20193;-49
2023/05/22 05:58:02;;;;;;;13.53;12.33;;;23.40;55.00;;;;;;5052196;28;20232;-48
2023/05/22 06:00:28;;;;;;;13.43;12.17;;;23.40;55.30;;;;;;5044237;28;20189;-52
2023/05/22 06:02:54;;;;;;;13.43;12.30;;;23.40;55.10;;;;;;5049848;28;20341;-48
2023/05/22 06:05:21;;;;;;;13.47;12.37;;;23.50;54.90;;;;;;5041815;28;20443;-47
2023/05/22 06:07:47;;;;;;;14.07;12.60;;;23.60;54.90;;;;;;5048398;28;20456;-48
2023/05/22 06:10:13;;;;;;;13.63;12.43;;;23.60;54.70;;;;;;5042897;28;20495;-48
2023/05/22 06:12:39;;;;;;;13.20;12.10;;;23.70;54.70;;;;;;5050082;28;20451;-47
2023/05/22 06:15:06;;;;;;;13.87;12.67;;;23.70;55.00;;;;;;5050151;28;20204;-48
2023/05/22 06:17:32;;;;;;;14.20;12.80;;;23.70;55.10;;;;;;5053921;28;20614;-47
2023/05/22 06:19:58;;;;;;;14.10;12.60;;;23.70;54.80;;;;;;5047259;28;20451;-48
2023/05/22 06:22:25;;;;;;;13.93;12.63;;;23.70;54.80;;;;;;5053794;28;20783;-47
2023/05/22 06:24:53;;;;;;;13.33;12.13;;;23.40;55.40;;;;;;5053444;28;20446;-47
2023/05/22 06:27:22;;;;;;;14.30;12.90;;;23.30;55.70;;;;;;5051686;28;20447;-49
2023/05/22 06:29:48;;;;;;;13.50;12.20;;;23.40;55.90;;;;;;5048970;28;21285;-48
2023/05/22 06:32:14;;;;;;;13.60;12.40;;;23.50;55.30;;;;;;5043753;28;20840;-53
2023/05/22 06:34:41;;;;;;;14.37;12.97;;;23.70;54.80;;;;;;5047128;28;20435;-52
2023/05/22 06:37:06;;;;;;;14.37;12.80;;;23.90;54.30;;;;;;5045197;28;20193;-50
2023/05/22 06:39:32;;;;;;;14.00;12.90;;;24.10;54.10;;;;;;5050983;28;20934;-48
2023/05/22 06:41:57;;;;;;;14.50;13.10;;;24.30;54.10;;;;;;5051476;28;20227;-48
2023/05/22 06:44:24;;;;;;;14.50;13.10;;;24.30;54.00;;;;;;5049587;28;20195;-48
2023/05/22 06:46:51;;;;;;;14.30;13.10;;;24.40;53.40;;;;;;5041129;28;20200;-50
2023/05/22 06:49:16;;;;;;;14.43;13.13;;;24.50;53.10;;;;;;5047453;28;20538;-48
2023/05/22 06:51:42;;;;;;;15.73;14.03;;;24.70;53.20;;;;;;5046522;28;20447;-49
2023/05/22 06:54:10;;;;;;;14.23;13.03;;;24.80;53.40;;;;;;5034578;28;20205;-47
2023/05/22 06:56:35;;;;;;;15.27;13.83;;;25.00;52.90;;;;;;5050970;28;20197;-48
2023/05/22 06:59:01;;;;;;;15.33;13.20;;;25.10;52.70;;;;;;5036234;28;20533;-50
2023/05/22 07:01:28;;;;;;;19.53;14.20;;;25.20;52.40;;;;;;5033248;28;20226;-49
2023/05/22 07:03:55;;;;;;;14.70;13.27;;;25.40;52.20;;;;;;5031305;28;20205;-47
2023/05/22 07:06:20;;;;;;;14.40;12.93;;;25.40;52.00;;;;;;5046963;28;20447;-48
2023/05/22 07:08:46;;;;;;;15.03;13.53;;;25.50;51.80;;;;;;5052983;28;20483;-48
2023/05/22 07:11:11;;;;;;;14.90;13.60;;;25.50;51.70;;;;;;5052914;28;20254;-48
2023/05/22 07:13:37;;;;;;;13.80;12.50;;;25.60;51.80;;;;;;5052666;28;20196;-48
2023/05/22 07:16:03;;;;;;;14.00;12.80;;;25.60;52.10;;;;;;5052350;28;20278;-49
2023/05/22 07:18:28;;;;;;;12.97;11.67;;;25.70;52.10;;;;;;5043876;28;20695;-48
2023/05/22 07:20:54;;;;;;;14.10;12.90;;;25.80;51.70;;;;;;5052693;28;20268;-48
2023/05/22 07:23:19;;;;;;;13.80;12.23;;;25.90;51.60;;;;;;5052539;28;20189;-49
2023/05/22 07:25:45;;;;;;;13.80;12.40;;;25.90;51.80;;;;;;5052096;28;20188;-49
2023/05/22 07:28:11;;;;;;;15.17;13.77;;;26.10;51.40;;;;;;5047757;28;20225;-49
2023/05/22 07:30:37;;;;;;;13.83;12.53;;;26.10;51.00;;;;;;5047206;28;20279;-47
2023/05/22 07:33:04;;;;;;;14.70;13.20;;;26.20;50.60;;;;;;5052375;28;20207;-49
2023/05/22 07:35:29;;;;;;;12.83;11.57;;;26.30;50.50;;;;;;5047054;28;20432;-48
2023/05/22 07:37:55;;;;;;;14.03;12.77;;;26.40;50.90;;;;;;5049267;28;20437;-50
2023/05/22 07:40:21;;;;;;;13.70;12.50;;;26.50;50.40;;;;;;5052285;28;20705;-47
2023/05/22 07:42:46;;;;;;;13.33;12.03;;;26.70;49.80;;;;;;5052249;28;20204;-49
2023/05/22 07:45:12;;;;;;;14.10;12.80;;;26.60;50.10;;;;;;5048612;28;20200;-49
2023/05/22 07:47:38;;;;;;;13.97;12.73;;;26.70;50.30;;;;;;5050382;28;20197;-47
2023/05/22 07:50:04;;;;;;;13.97;12.67;;;26.80;49.80;;;;;;5041986;28;20225;-48
2023/05/22 07:52:30;;;;;;;13.67;12.37;;;26.90;49.70;;;;;;5040765;28;20276;-49
2023/05/22 07:54:56;;;;;;;12.20;11.10;;;27.10;49.90;;;;;;5048885;28;20534;-51
2023/05/22 07:57:22;;;;;;;14.23;13.00;;;27.30;50.00;;;;;;5045082;28;20553;-52
2023/05/22 07:59:48;;;;;;;13.77;12.00;;;27.50;49.60;;;;;;5041554;28;20474;-49
2023/05/22 08:02:13;;;;;;;13.27;12.07;;;27.60;48.70;;;;;;5047951;28;20200;-48
2023/05/22 08:04:39;;;;;;;12.63;11.43;;;27.70;49.30;;;;;;5041606;28;20204;-48
2023/05/22 08:07:05;;;;;;;16.27;13.03;;;27.90;49.00;;;;;;5047232;28;20230;-48
2023/05/22 08:09:31;;;;;;;12.07;11.03;;;28.00;47.50;;;;;;5047325;28;20228;-50
2023/05/22 08:11:56;;;;;;;13.30;12.00;;;28.10;48.30;;;;;;5045231;28;20446;-49
2023/05/22 08:14:22;;;;;;;17.93;13.03;;;28.30;48.30;;;;;;5046504;28;20609;-48
2023/05/22 08:16:48;;;;;;;13.20;10.23;;;28.40;47.40;;;;;;5044723;28;20201;-50
2023/05/22 08:19:13;;;;;;;15.10;13.80;;;28.60;47.80;;;;;;5050123;28;20219;-49
2023/05/22 08:21:39;;;;;;;13.70;12.47;;;28.70;46.70;;;;;;5035812;28;20204;-48
2023/05/22 08:24:06;;;;;;;16.20;13.67;;;28.80;46.40;;;;;;5041964;28;20200;-51
2023/05/22 08:26:32;;;;;;;14.97;13.67;;;28.90;46.10;;;;;;5046717;28;20218;-48
2023/05/22 08:28:58;;;;;;;15.23;13.63;;;28.80;45.90;;;;;;5049758;28;20518;-50
2023/05/22 08:31:24;;;;;;;15.33;14.07;;;28.80;46.20;;;;;;5045295;28;20470;-48
2023/05/22 08:33:50;;;;;;;16.03;14.53;;;29.00;45.40;;;;;;5047104;28;20463;-48
2023/05/22 08:36:15;;;;;;;14.70;13.30;;;28.90;45.60;;;;;;5046204;28;20619;-49
2023/05/22 08:38:41;;;;;;;14.90;13.60;;;29.00;46.20;;;;;;5048724;28;20512;-48
2023/05/22 08:41:08;;;;;;;14.30;12.80;;;29.20;45.70;;;;;;5040936;28;20197;-47
2023/05/22 08:43:34;;;;;;;14.93;13.50;;;29.20;45.50;;;;;;5031608;28;20667;-48
2023/05/22 08:46:03;;;;;;;14.83;13.53;;;29.40;45.20;;;;;;5048248;28;20544;-47
2023/05/22 08:48:33;;;;;;;15.70;13.30;;;29.50;45.60;;;;;;5036634;28;20470;-49
2023/05/22 08:51:03;;;;;;;15.30;13.80;;;29.60;45.10;;;;;;5048248;28;20451;-50
2023/05/22 08:53:34;;;;;;;14.97;13.67;;;29.80;44.40;;;;;;5042947;28;20453;-53
2023/05/22 08:56:00;;;;;;;14.30;13.00;;;29.90;44.40;;;;;;5045931;28;20443;-50
2023/05/22 08:58:26;;;;;;;14.90;13.37;;;30.00;44.30;;;;;;5046778;28;20482;-54
2023/05/22 09:00:53;;;;;;;14.77;13.20;;;30.10;44.70;;;;;;5044262;28;20446;-50
2023/05/22 09:03:20;;;;;;;14.03;12.83;;;30.30;44.50;;;;;;5047875;28;20434;-48
2023/05/22 09:05:46;;;;;;;14.53;13.23;;;30.40;44.90;;;;;;5045477;28;20493;-52
2023/05/22 09:08:12;;;;;;;12.70;11.40;;;30.50;44.30;;;;;;5045889;28;20440;-51
2023/05/22 09:10:37;;;;;;;14.90;13.60;;;30.70;45.90;;;;;;5045688;28;20239;-52
2023/05/22 09:13:08;;;;;;;13.87;12.67;;;31.00;44.30;;;;;;5041150;28;20808;-53
2023/05/22 09:15:36;;;;;;;15.37;13.87;;;31.20;43.90;;;;;;5030313;28;20193;-49
2023/05/22 09:18:03;;;;;;;14.87;13.33;;;31.30;44.70;;;;;;5052089;28;21182;-51
2023/05/22 09:20:32;;;;;;;13.67;12.57;;;31.50;43.60;;;;;;5044268;28;20839;-54
2023/05/22 09:22:58;;;;;;;14.83;13.53;;;31.70;43.80;;;;;;5052634;28;20671;-52
2023/05/22 09:25:25;;;;;;;13.27;12.07;;;31.90;43.70;;;;;;5051552;28;20527;-54
2023/05/22 09:27:51;;;;;;;14.37;12.77;;;32.10;42.30;;;;;;5053066;28;20192;-51
2023/05/22 09:30:18;;;;;;;11.90;10.87;;;32.20;41.60;;;;;;5034642;28;20487;-52
2023/05/22 09:32:45;;;;;;;12.50;11.30;;;32.40;42.00;;;;;;5043853;28;20434;-54
2023/05/22 09:35:12;;;;;;;12.50;11.30;;;32.50;41.90;;;;;;5033925;28;20521;-52
2023/05/22 09:37:38;;;;;;;12.00;11.10;;;32.50;40.00;;;;;;5034183;28;20988;-52
2023/05/22 09:40:06;;;;;;;11.43;10.57;;;32.60;38.90;;;;;;5047174;28;20442;-53
2023/05/22 09:42:33;;;;;;;12.17;11.13;;;32.70;38.70;;;;;;5048483;28;20196;-51
2023/05/22 09:45:06;;;;;;;11.57;10.70;;;32.70;38.40;;;;;;5049646;28;20492;-50
2023/05/22 09:47:33;;;;;;;12.07;11.07;;;32.50;37.40;;;;;;5042513;28;20541;-52
2023/05/22 09:50:00;;;;;;;12.07;9.43;;;32.30;38.00;;;;;;5051283;28;20493;-49
2023/05/22 09:52:32;;;;;;;12.60;11.50;;;32.10;38.30;;;;;;5051345;28;20434;-48
2023/05/22 09:55:02;;;;;;;12.03;10.83;;;32.00;38.80;;;;;;5040183;28;20524;-53
2023/05/22 09:57:32;;;;;;;18.37;12.07;;;31.90;39.40;;;;;;5052763;28;20423;-52
2023/05/22 09:59:58;;;;;;;13.70;12.30;;;31.90;39.40;;;;;;5001910;28;20833;-51
2023/05/22 10:02:25;;;;;;;11.40;10.40;;;31.80;40.00;;;;;;4996967;28;20927;-49
2023/05/22 10:04:52;;;;;;;12.77;11.47;;;31.70;39.70;;;;;;5001018;28;20449;-51
2023/05/22 10:07:35;;;;;;;11.97;10.87;;;31.70;39.90;;;;;;5012126;28;20508;-48
2023/05/22 10:10:06;;;;;;;12.07;11.00;;;31.80;39.80;;;;;;5013332;28;20848;-53
2023/05/22 10:12:36;;;;;;;12.60;11.47;;;32.00;39.70;;;;;;5012206;28;20440;-52
2023/05/22 10:15:06;;;;;;;12.63;11.63;;;32.30;39.80;;;;;;5003484;28;20492;-48
2023/05/22 10:17:31;;;;;;;12.93;11.43;;;32.60;39.60;;;;;;4992043;28;20438;-53
2023/05/22 10:19:57;;;;;;;12.03;11.13;;;32.80;38.80;;;;;;5004537;28;20437;-51
2023/05/22 10:22:26;;;;;;;12.37;11.43;;;33.00;40.50;;;;;;4996972;28;20194;-54
2023/05/22 10:24:53;;;;;;;12.27;11.20;;;33.20;39.00;;;;;;5003177;28;20191;-53
2023/05/22 10:27:18;;;;;;;11.97;10.90;;;33.40;39.00;;;;;;5002935;28;21009;-54
2023/05/22 10:30:02;;;;;;;11.57;10.67;;;33.60;39.10;;;;;;4999947;28;20666;-53
2023/05/22 10:32:46;;;;;;;12.23;11.23;;;33.90;39.00;;;;;;5013268;28;20243;-52
2023/05/22 10:35:31;;;;;;;15.33;11.77;;;34.00;37.50;;;;;;5005932;28;20452;-53
2023/05/22 10:38:26;;;;;;;11.87;10.67;;;34.10;37.40;;;;;;5008941;28;20533;-53
2023/05/22 10:40:52;;;;;;;12.03;10.57;;;34.20;36.80;;;;;;5011310;28;21251;-52
2023/05/22 10:43:21;;;;;;;17.77;12.90;;;34.20;36.10;;;;;;5006471;28;20442;-51
2023/05/22 10:45:47;;;;;;;15.13;11.40;;;34.30;36.10;;;;;;5001447;28;20806;-53
2023/05/22 10:48:13;;;;;;;11.00;10.10;;;34.20;36.10;;;;;;5005607;28;20455;-52
2023/05/22 10:50:39;;;;;;;12.00;11.00;;;34.40;36.80;;;;;;5009060;28;20562;-53
2023/05/22 10:53:23;;;;;;;13.00;11.70;;;34.20;36.10;;;;;;5010026;28;20448;-50
2023/05/22 10:55:56;;;;;;;12.80;11.70;;;33.90;36.00;;;;;;5007487;28;20538;-53
2023/05/22 10:58:33;;;;;;;12.87;11.67;;;33.80;36.40;;;;;;5024087;28;20490;-53
2023/05/22 11:01:25;;;;;;;12.63;11.63;;;33.80;37.10;;;;;;5051697;28;20454;-54
2023/05/22 11:03:55;;;;;;;11.30;10.40;;;34.00;37.50;;;;;;5044184;28;20503;-53
2023/05/22 11:06:37;;;;;;;12.30;11.33;;;34.20;37.70;;;;;;5051279;28;21026;-53
2023/05/22 11:09:27;;;;;;;11.63;10.73;;;34.50;37.20;;;;;;5052010;28;20491;-53
2023/05/22 11:12:19;;;;;;;13.17;11.30;;;34.70;36.80;;;;;;5031001;28;20452;-53
2023/05/22 11:14:55;;;;;;;11.00;10.10;;;34.80;35.60;;;;;;5036805;28;20968;-54
2023/05/22 11:17:26;;;;;;;12.63;11.50;;;34.90;35.40;;;;;;5036730;28;20448;-53
2023/05/22 11:20:17;;;;;;;13.70;12.40;;;34.90;35.30;;;;;;5035864;28;20451;-55
2023/05/22 11:22:49;;;;;;;11.07;10.17;;;34.90;35.40;;;;;;5045589;28;21223;-53
2023/05/22 11:25:19;;;;;;;13.60;12.30;;;34.90;35.60;;;;;;5050753;28;20435;-54
2023/05/22 11:27:47;;;;;;;11.87;10.77;;;34.90;35.80;;;;;;5051573;28;20809;-53
2023/05/22 11:30:13;;;;;;;12.43;11.30;;;35.10;36.00;;;;;;5049165;28;21071;-54
2023/05/22 11:32:44;;;;;;;12.40;11.40;;;35.30;35.20;;;;;;5050475;28;20577;-55
2023/05/22 11:35:16;;;;;;;11.50;10.60;;;35.50;35.70;;;;;;5047602;28;20518;-54
2023/05/22 11:37:42;;;;;;;13.00;11.73;;;35.60;36.80;;;;;;5044364;28;20785;-55
2023/05/22 11:40:09;;;;;;;11.80;11.00;;;35.70;36.20;;;;;;5046836;28;20527;-55
2023/05/22 11:42:36;;;;;;;11.90;10.97;;;35.90;35.70;;;;;;5046456;28;20199;-55
2023/05/22 11:45:03;;;;;;;11.97;11.07;;;36.00;34.40;;;;;;5045291;28;20454;-56
2023/05/22 11:47:29;;;;;;;11.80;10.90;;;35.90;34.10;;;;;;5051695;28;20427;-55
2023/05/22 11:49:58;;;;;;;12.53;11.53;;;36.00;35.80;;;;;;5045901;28;20559;-55
2023/05/22 11:52:24;;;;;;;12.30;11.20;;;36.00;35.00;;;;;;5045425;28;20192;-55
2023/05/22 11:54:52;;;;;;;12.20;11.30;;;36.00;35.70;;;;;;5051080;28;20442;-55
2023/05/22 11:57:19;;;;;;;11.80;10.90;;;36.20;35.30;;;;;;5049336;28;20205;-56
2023/05/22 11:59:48;;;;;;;11.40;10.50;;;36.20;34.90;;;;;;5045240;28;20517;-57
2023/05/22 12:02:15;;;;;;;11.77;10.63;;;36.30;34.70;;;;;;5045463;28;20449;-54
2023/05/22 12:04:40;;;;;;;14.33;11.00;;;36.20;35.20;;;;;;5042486;28;20447;-57
2023/05/22 12:07:07;;;;;;;10.87;9.97;;;36.10;34.90;;;;;;5045677;28;20449;-56
2023/05/22 12:09:33;;;;;;;11.77;10.80;;;36.20;36.10;;;;;;5044112;28;20312;-56
2023/05/22 12:11:59;;;;;;;11.97;10.97;;;36.30;35.70;;;;;;5045143;28;21017;-56
2023/05/22 12:14:32;;;;;;;12.03;10.90;;;36.50;34.10;;;;;;5039673;28;20685;-56
2023/05/22 12:16:58;;;;;;;11.47;10.57;;;36.60;34.50;;;;;;5046757;28;20196;-56
2023/05/22 12:19:25;;;;;;;11.60;10.73;;;36.80;33.80;;;;;;5048571;28;20443;-56
2023/05/22 12:21:51;;;;;;;11.47;10.57;;;36.80;33.80;;;;;;5050416;28;20457;-56
2023/05/22 12:24:23;;;;;;;11.13;10.20;;;36.70;34.10;;;;;;5045794;28;20438;-56
2023/05/22 12:26:50;;;;;;;11.90;10.90;;;36.80;32.80;;;;;;5047888;28;20535;-56
2023/05/22 12:29:15;;;;;;;11.97;10.97;;;36.50;35.20;;;;;;5049405;28;20497;-55
2023/05/22 12:31:45;;;;;;;11.37;10.00;;;36.50;34.20;;;;;;5048472;28;21254;-57